sensor_id;sensor_type;location;lat;lon;timestamp;P1;durP1;ratioP1;P2;durP2;ratioP2
49235;SDS011;35067;48.134;8.378;2022-11-20T00:01:50;5.27;;;4.00;;
49235;SDS011;35067;48.134;8.378;2022-11-20T00:03:51;7.27;;;4.40;;
49235;SDS011;35067;48.134;8.378;2022-11-20T00:05:53;6.53;;;4.43;;
49235;SDS011;35067;48.134;8.378;2022-11-20T00:07:54;6.90;;;4.77;;
49235;SDS011;35067;48.134;8.378;2022-11-20T00:09:54;7.10;;;4.70;;
49235;SDS011;35067;48.134;8.378;2022-11-20T00:11:55;7.80;;;5.37;;
49235;SDS011;35067;48.134;8.378;2022-11-20T00:13:56;7.97;;;5.10;;
49235;SDS011;35067;48.134;8.378;2022-11-20T00:16:00;8.57;;;5.07;;
49235;SDS011;35067;48.134;8.378;2022-11-20T00:18:03;8.77;;;5.40;;
49235;SDS011;35067;48.134;8.378;2022-11-20T00:20:04;8.87;;;4.83;;
49235;SDS011;35067;48.134;8.378;2022-11-20T00:22:05;7.73;;;4.87;;
49235;SDS011;35067;48.134;8.378;2022-11-20T00:24:08;11.63;;;6.23;;
49235;SDS011;35067;48.134;8.378;2022-11-20T00:26:11;10.07;;;5.87;;
49235;SDS011;35067;48.134;8.378;2022-11-20T00:28:14;10.37;;;6.30;;
49235;SDS011;35067;48.134;8.378;2022-11-20T00:30:15;9.07;;;5.97;;
49235;SDS011;35067;48.134;8.378;2022-11-20T00:32:15;9.53;;;5.70;;
49235;SDS011;35067;48.134;8.378;2022-11-20T00:34:16;13.17;;;5.80;;
49235;SDS011;35067;48.134;8.378;2022-11-20T00:36:21;9.03;;;5.30;;
49235;SDS011;35067;48.134;8.378;2022-11-20T00:38:24;8.03;;;5.47;;
49235;SDS011;35067;48.134;8.378;2022-11-20T00:40:25;6.87;;;4.17;;
49235;SDS011;35067;48.134;8.378;2022-11-20T00:42:25;8.20;;;4.80;;
49235;SDS011;35067;48.134;8.378;2022-11-20T00:44:26;8.20;;;4.60;;
49235;SDS011;35067;48.134;8.378;2022-11-20T00:46:27;6.87;;;4.20;;
49235;SDS011;35067;48.134;8.378;2022-11-20T00:48:28;6.87;;;4.70;;
49235;SDS011;35067;48.134;8.378;2022-11-20T00:50:29;6.90;;;3.87;;
49235;SDS011;35067;48.134;8.378;2022-11-20T00:52:29;6.13;;;3.90;;
49235;SDS011;35067;48.134;8.378;2022-11-20T00:54:30;6.50;;;4.37;;
49235;SDS011;35067;48.134;8.378;2022-11-20T00:56:30;5.17;;;3.83;;
49235;SDS011;35067;48.134;8.378;2022-11-20T00:58:32;6.63;;;4.73;;
49235;SDS011;35067;48.134;8.378;2022-11-20T01:00:35;7.17;;;4.47;;
49235;SDS011;35067;48.134;8.378;2022-11-20T01:02:36;6.00;;;4.10;;
49235;SDS011;35067;48.134;8.378;2022-11-20T01:04:36;6.03;;;3.90;;
49235;SDS011;35067;48.134;8.378;2022-11-20T01:06:38;5.60;;;3.47;;
49235;SDS011;35067;48.134;8.378;2022-11-20T01:08:39;5.77;;;4.33;;
49235;SDS011;35067;48.134;8.378;2022-11-20T01:10:40;4.30;;;3.40;;
49235;SDS011;35067;48.134;8.378;2022-11-20T01:12:41;6.30;;;3.80;;
49235;SDS011;35067;48.134;8.378;2022-11-20T01:14:41;4.03;;;3.20;;
49235;SDS011;35067;48.134;8.378;2022-11-20T01:16:47;4.53;;;3.47;;
49235;SDS011;35067;48.134;8.378;2022-11-20T01:18:50;4.67;;;3.27;;
49235;SDS011;35067;48.134;8.378;2022-11-20T01:20:53;5.73;;;3.43;;
49235;SDS011;35067;48.134;8.378;2022-11-20T01:22:54;4.80;;;3.00;;
49235;SDS011;35067;48.134;8.378;2022-11-20T01:24:55;4.00;;;3.30;;
49235;SDS011;35067;48.134;8.378;2022-11-20T01:26:55;4.93;;;3.10;;
49235;SDS011;35067;48.134;8.378;2022-11-20T01:28:56;3.33;;;2.50;;
49235;SDS011;35067;48.134;8.378;2022-11-20T01:30:58;3.97;;;3.00;;
49235;SDS011;35067;48.134;8.378;2022-11-20T01:32:59;4.57;;;2.63;;
49235;SDS011;35067;48.134;8.378;2022-11-20T01:35:00;2.93;;;2.63;;
49235;SDS011;35067;48.134;8.378;2022-11-20T01:37:00;3.47;;;2.47;;
49235;SDS011;35067;48.134;8.378;2022-11-20T01:39:02;4.90;;;2.97;;
49235;SDS011;35067;48.134;8.378;2022-11-20T01:41:13;2.30;;;1.80;;
49235;SDS011;35067;48.134;8.378;2022-11-20T01:43:34;2.90;;;2.30;;
49235;SDS011;35067;48.134;8.378;2022-11-20T01:47:57;2.27;;;2.00;;
49235;SDS011;35067;48.134;8.378;2022-11-20T01:52:24;2.37;;;1.87;;
49235;SDS011;35067;48.134;8.378;2022-11-20T01:54:36;3.13;;;2.20;;
49235;SDS011;35067;48.134;8.378;2022-11-20T01:56:53;2.43;;;2.13;;
49235;SDS011;35067;48.134;8.378;2022-11-20T01:58:57;4.63;;;2.20;;
49235;SDS011;35067;48.134;8.378;2022-11-20T02:01:01;2.07;;;1.80;;
49235;SDS011;35067;48.134;8.378;2022-11-20T02:03:05;2.97;;;1.87;;
49235;SDS011;35067;48.134;8.378;2022-11-20T02:05:53;3.00;;;2.30;;
49235;SDS011;35067;48.134;8.378;2022-11-20T02:07:50;4.83;;;2.43;;
49235;SDS011;35067;48.134;8.378;2022-11-20T02:09:52;1.90;;;1.70;;
49235;SDS011;35067;48.134;8.378;2022-11-20T02:11:53;2.67;;;2.40;;
49235;SDS011;35067;48.134;8.378;2022-11-20T02:13:55;2.07;;;1.80;;
49235;SDS011;35067;48.134;8.378;2022-11-20T02:15:56;3.33;;;2.00;;
49235;SDS011;35067;48.134;8.378;2022-11-20T02:17:56;4.83;;;2.50;;
49235;SDS011;35067;48.134;8.378;2022-11-20T02:19:57;2.63;;;2.17;;
49235;SDS011;35067;48.134;8.378;2022-11-20T02:24:38;3.13;;;2.40;;
49235;SDS011;35067;48.134;8.378;2022-11-20T02:26:45;2.83;;;2.30;;
49235;SDS011;35067;48.134;8.378;2022-11-20T02:29:07;2.37;;;2.17;;
49235;SDS011;35067;48.134;8.378;2022-11-20T02:31:08;4.13;;;2.90;;
49235;SDS011;35067;48.134;8.378;2022-11-20T02:33:09;3.87;;;2.50;;
49235;SDS011;35067;48.134;8.378;2022-11-20T02:35:35;3.90;;;2.60;;
49235;SDS011;35067;48.134;8.378;2022-11-20T02:37:30;2.90;;;2.50;;
49235;SDS011;35067;48.134;8.378;2022-11-20T02:39:34;3.00;;;2.60;;
49235;SDS011;35067;48.134;8.378;2022-11-20T02:41:36;3.00;;;2.50;;
49235;SDS011;35067;48.134;8.378;2022-11-20T02:43:37;3.13;;;2.10;;
49235;SDS011;35067;48.134;8.378;2022-11-20T02:45:38;2.37;;;2.10;;
49235;SDS011;35067;48.134;8.378;2022-11-20T02:47:38;4.53;;;2.70;;
49235;SDS011;35067;48.134;8.378;2022-11-20T02:49:39;2.83;;;2.50;;
49235;SDS011;35067;48.134;8.378;2022-11-20T02:51:40;3.77;;;2.33;;
49235;SDS011;35067;48.134;8.378;2022-11-20T02:53:40;3.20;;;2.20;;
49235;SDS011;35067;48.134;8.378;2022-11-20T02:55:41;3.70;;;2.60;;
49235;SDS011;35067;48.134;8.378;2022-11-20T02:57:42;4.30;;;2.40;;
49235;SDS011;35067;48.134;8.378;2022-11-20T02:59:43;5.37;;;3.17;;
49235;SDS011;35067;48.134;8.378;2022-11-20T03:01:43;4.50;;;2.87;;
49235;SDS011;35067;48.134;8.378;2022-11-20T03:03:44;3.27;;;2.60;;
49235;SDS011;35067;48.134;8.378;2022-11-20T03:05:45;2.87;;;2.40;;
49235;SDS011;35067;48.134;8.378;2022-11-20T03:07:45;4.53;;;2.90;;
49235;SDS011;35067;48.134;8.378;2022-11-20T03:09:46;3.80;;;2.77;;
49235;SDS011;35067;48.134;8.378;2022-11-20T03:11:47;3.53;;;2.20;;
49235;SDS011;35067;48.134;8.378;2022-11-20T03:13:47;3.37;;;2.70;;
49235;SDS011;35067;48.134;8.378;2022-11-20T03:15:48;3.47;;;2.87;;
49235;SDS011;35067;48.134;8.378;2022-11-20T03:17:49;3.03;;;2.30;;
49235;SDS011;35067;48.134;8.378;2022-11-20T03:19:53;3.50;;;2.47;;
49235;SDS011;35067;48.134;8.378;2022-11-20T03:21:54;3.47;;;2.50;;
49235;SDS011;35067;48.134;8.378;2022-11-20T03:23:54;3.03;;;2.30;;
49235;SDS011;35067;48.134;8.378;2022-11-20T03:25:55;3.97;;;2.80;;
49235;SDS011;35067;48.134;8.378;2022-11-20T03:27:56;2.90;;;2.50;;
49235;SDS011;35067;48.134;8.378;2022-11-20T03:29:57;3.10;;;2.23;;
49235;SDS011;35067;48.134;8.378;2022-11-20T03:31:57;4.47;;;2.30;;
49235;SDS011;35067;48.134;8.378;2022-11-20T03:33:58;2.80;;;2.23;;
49235;SDS011;35067;48.134;8.378;2022-11-20T03:36:03;4.23;;;2.40;;
49235;SDS011;35067;48.134;8.378;2022-11-20T03:38:05;3.53;;;2.33;;
49235;SDS011;35067;48.134;8.378;2022-11-20T03:40:06;3.30;;;2.57;;
49235;SDS011;35067;48.134;8.378;2022-11-20T03:42:08;4.00;;;2.20;;
49235;SDS011;35067;48.134;8.378;2022-11-20T03:44:29;3.60;;;2.47;;
49235;SDS011;35067;48.134;8.378;2022-11-20T03:46:29;3.73;;;2.43;;
49235;SDS011;35067;48.134;8.378;2022-11-20T03:48:30;4.17;;;2.40;;
49235;SDS011;35067;48.134;8.378;2022-11-20T03:50:31;3.50;;;2.13;;
49235;SDS011;35067;48.134;8.378;2022-11-20T03:52:32;3.80;;;2.20;;
49235;SDS011;35067;48.134;8.378;2022-11-20T03:54:33;2.20;;;2.00;;
49235;SDS011;35067;48.134;8.378;2022-11-20T03:56:34;2.77;;;2.00;;
49235;SDS011;35067;48.134;8.378;2022-11-20T03:58:39;4.17;;;2.67;;
49235;SDS011;35067;48.134;8.378;2022-11-20T04:00:41;3.87;;;2.03;;
49235;SDS011;35067;48.134;8.378;2022-11-20T04:02:41;6.33;;;2.40;;
49235;SDS011;35067;48.134;8.378;2022-11-20T04:04:42;2.87;;;1.97;;
49235;SDS011;35067;48.134;8.378;2022-11-20T04:06:42;3.67;;;1.80;;
49235;SDS011;35067;48.134;8.378;2022-11-20T04:08:43;3.73;;;2.00;;
49235;SDS011;35067;48.134;8.378;2022-11-20T04:10:44;4.10;;;2.30;;
49235;SDS011;35067;48.134;8.378;2022-11-20T04:12:45;2.90;;;2.33;;
49235;SDS011;35067;48.134;8.378;2022-11-20T04:14:45;3.07;;;2.00;;
49235;SDS011;35067;48.134;8.378;2022-11-20T04:16:46;4.30;;;2.23;;
49235;SDS011;35067;48.134;8.378;2022-11-20T04:18:50;3.37;;;2.83;;
49235;SDS011;35067;48.134;8.378;2022-11-20T04:20:53;3.00;;;2.50;;
49235;SDS011;35067;48.134;8.378;2022-11-20T04:22:54;3.50;;;2.50;;
49235;SDS011;35067;48.134;8.378;2022-11-20T04:24:54;2.70;;;2.00;;
49235;SDS011;35067;48.134;8.378;2022-11-20T04:26:55;2.10;;;1.73;;
49235;SDS011;35067;48.134;8.378;2022-11-20T04:28:56;3.70;;;2.30;;
49235;SDS011;35067;48.134;8.378;2022-11-20T04:31:04;2.77;;;2.00;;
49235;SDS011;35067;48.134;8.378;2022-11-20T04:33:11;3.10;;;2.00;;
49235;SDS011;35067;48.134;8.378;2022-11-20T04:35:11;2.57;;;2.10;;
49235;SDS011;35067;48.134;8.378;2022-11-20T04:37:12;2.37;;;2.03;;
49235;SDS011;35067;48.134;8.378;2022-11-20T04:39:13;2.73;;;2.40;;
49235;SDS011;35067;48.134;8.378;2022-11-20T04:41:16;2.70;;;2.37;;
49235;SDS011;35067;48.134;8.378;2022-11-20T04:43:19;3.07;;;2.43;;
49235;SDS011;35067;48.134;8.378;2022-11-20T04:45:20;2.90;;;2.13;;
49235;SDS011;35067;48.134;8.378;2022-11-20T04:47:22;4.43;;;2.30;;
49235;SDS011;35067;48.134;8.378;2022-11-20T04:49:23;2.50;;;2.10;;
49235;SDS011;35067;48.134;8.378;2022-11-20T04:51:23;4.93;;;2.37;;
49235;SDS011;35067;48.134;8.378;2022-11-20T04:53:24;2.73;;;2.23;;
49235;SDS011;35067;48.134;8.378;2022-11-20T04:55:25;3.07;;;2.60;;
49235;SDS011;35067;48.134;8.378;2022-11-20T04:57:26;3.60;;;2.57;;
49235;SDS011;35067;48.134;8.378;2022-11-20T04:59:26;2.23;;;2.03;;
49235;SDS011;35067;48.134;8.378;2022-11-20T05:01:27;4.60;;;2.37;;
49235;SDS011;35067;48.134;8.378;2022-11-20T05:03:28;4.23;;;2.83;;
49235;SDS011;35067;48.134;8.378;2022-11-20T05:05:28;2.90;;;2.23;;
49235;SDS011;35067;48.134;8.378;2022-11-20T05:07:29;2.93;;;2.43;;
49235;SDS011;35067;48.134;8.378;2022-11-20T05:09:30;4.67;;;2.60;;
49235;SDS011;35067;48.134;8.378;2022-11-20T05:11:31;3.77;;;2.77;;
49235;SDS011;35067;48.134;8.378;2022-11-20T05:13:32;3.33;;;2.40;;
49235;SDS011;35067;48.134;8.378;2022-11-20T05:15:33;3.13;;;2.20;;
49235;SDS011;35067;48.134;8.378;2022-11-20T05:17:33;2.10;;;1.60;;
49235;SDS011;35067;48.134;8.378;2022-11-20T05:19:34;1.80;;;1.70;;
49235;SDS011;35067;48.134;8.378;2022-11-20T05:21:35;2.10;;;1.63;;
49235;SDS011;35067;48.134;8.378;2022-11-20T05:23:35;1.57;;;1.33;;
49235;SDS011;35067;48.134;8.378;2022-11-20T05:25:36;2.33;;;1.27;;
49235;SDS011;35067;48.134;8.378;2022-11-20T05:27:37;1.70;;;1.47;;
49235;SDS011;35067;48.134;8.378;2022-11-20T05:29:38;1.20;;;1.10;;
49235;SDS011;35067;48.134;8.378;2022-11-20T05:31:39;3.13;;;1.90;;
49235;SDS011;35067;48.134;8.378;2022-11-20T05:33:41;2.47;;;1.93;;
49235;SDS011;35067;48.134;8.378;2022-11-20T05:35:43;2.43;;;1.83;;
49235;SDS011;35067;48.134;8.378;2022-11-20T05:37:44;2.60;;;2.00;;
49235;SDS011;35067;48.134;8.378;2022-11-20T05:39:45;2.97;;;1.97;;
49235;SDS011;35067;48.134;8.378;2022-11-20T05:41:45;3.77;;;2.50;;
49235;SDS011;35067;48.134;8.378;2022-11-20T05:43:46;3.57;;;2.10;;
49235;SDS011;35067;48.134;8.378;2022-11-20T05:45:52;2.03;;;1.60;;
49235;SDS011;35067;48.134;8.378;2022-11-20T05:47:57;3.27;;;1.83;;
49235;SDS011;35067;48.134;8.378;2022-11-20T05:50:01;1.40;;;1.30;;
49235;SDS011;35067;48.134;8.378;2022-11-20T05:52:02;2.20;;;1.30;;
49235;SDS011;35067;48.134;8.378;2022-11-20T05:54:03;1.30;;;1.20;;
49235;SDS011;35067;48.134;8.378;2022-11-20T05:56:05;1.60;;;1.40;;
49235;SDS011;35067;48.134;8.378;2022-11-20T05:58:11;1.87;;;1.60;;
49235;SDS011;35067;48.134;8.378;2022-11-20T06:00:12;1.67;;;1.53;;
49235;SDS011;35067;48.134;8.378;2022-11-20T06:02:13;2.20;;;1.80;;
49235;SDS011;35067;48.134;8.378;2022-11-20T06:04:14;2.10;;;1.90;;
49235;SDS011;35067;48.134;8.378;2022-11-20T06:06:15;3.00;;;2.00;;
49235;SDS011;35067;48.134;8.378;2022-11-20T06:08:17;2.10;;;1.80;;
49235;SDS011;35067;48.134;8.378;2022-11-20T06:10:18;3.20;;;2.33;;
49235;SDS011;35067;48.134;8.378;2022-11-20T06:12:18;3.97;;;3.37;;
49235;SDS011;35067;48.134;8.378;2022-11-20T06:14:19;4.27;;;3.33;;
49235;SDS011;35067;48.134;8.378;2022-11-20T06:16:20;4.83;;;3.63;;
49235;SDS011;35067;48.134;8.378;2022-11-20T06:18:21;4.10;;;3.23;;
49235;SDS011;35067;48.134;8.378;2022-11-20T06:20:22;5.97;;;4.70;;
49235;SDS011;35067;48.134;8.378;2022-11-20T06:22:22;3.57;;;2.63;;
49235;SDS011;35067;48.134;8.378;2022-11-20T06:24:23;2.57;;;2.10;;
49235;SDS011;35067;48.134;8.378;2022-11-20T06:26:26;2.33;;;1.80;;
49235;SDS011;35067;48.134;8.378;2022-11-20T06:28:27;5.47;;;2.20;;
49235;SDS011;35067;48.134;8.378;2022-11-20T06:30:28;3.37;;;2.47;;
49235;SDS011;35067;48.134;8.378;2022-11-20T06:32:28;6.47;;;3.43;;
49235;SDS011;35067;48.134;8.378;2022-11-20T06:34:29;4.03;;;3.27;;
49235;SDS011;35067;48.134;8.378;2022-11-20T06:36:30;4.00;;;2.13;;
49235;SDS011;35067;48.134;8.378;2022-11-20T06:38:30;3.73;;;2.77;;
49235;SDS011;35067;48.134;8.378;2022-11-20T06:40:31;3.43;;;2.50;;
49235;SDS011;35067;48.134;8.378;2022-11-20T06:42:32;3.47;;;2.60;;
49235;SDS011;35067;48.134;8.378;2022-11-20T06:44:32;3.03;;;2.10;;
49235;SDS011;35067;48.134;8.378;2022-11-20T06:46:33;3.83;;;1.97;;
49235;SDS011;35067;48.134;8.378;2022-11-20T06:48:34;3.00;;;2.20;;
49235;SDS011;35067;48.134;8.378;2022-11-20T06:50:36;2.30;;;1.87;;
49235;SDS011;35067;48.134;8.378;2022-11-20T06:52:37;2.53;;;2.07;;
49235;SDS011;35067;48.134;8.378;2022-11-20T06:54:38;3.73;;;2.90;;
49235;SDS011;35067;48.134;8.378;2022-11-20T06:56:38;2.00;;;1.70;;
49235;SDS011;35067;48.134;8.378;2022-11-20T06:58:39;1.60;;;1.37;;
49235;SDS011;35067;48.134;8.378;2022-11-20T07:00:40;2.40;;;1.90;;
49235;SDS011;35067;48.134;8.378;2022-11-20T07:02:40;1.30;;;1.20;;
49235;SDS011;35067;48.134;8.378;2022-11-20T07:04:41;2.60;;;1.30;;
49235;SDS011;35067;48.134;8.378;2022-11-20T07:06:42;1.90;;;1.10;;
49235;SDS011;35067;48.134;8.378;2022-11-20T07:08:42;1.37;;;1.17;;
49235;SDS011;35067;48.134;8.378;2022-11-20T07:10:43;1.50;;;1.20;;
49235;SDS011;35067;48.134;8.378;2022-11-20T07:12:48;2.13;;;1.70;;
49235;SDS011;35067;48.134;8.378;2022-11-20T07:14:50;2.07;;;1.60;;
49235;SDS011;35067;48.134;8.378;2022-11-20T07:16:51;7.17;;;3.67;;
49235;SDS011;35067;48.134;8.378;2022-11-20T07:18:52;3.43;;;2.03;;
49235;SDS011;35067;48.134;8.378;2022-11-20T07:20:52;2.67;;;1.63;;
49235;SDS011;35067;48.134;8.378;2022-11-20T07:22:53;2.53;;;2.03;;
49235;SDS011;35067;48.134;8.378;2022-11-20T07:24:55;3.70;;;1.80;;
49235;SDS011;35067;48.134;8.378;2022-11-20T07:26:56;1.50;;;1.10;;
49235;SDS011;35067;48.134;8.378;2022-11-20T07:28:56;0.87;;;0.80;;
49235;SDS011;35067;48.134;8.378;2022-11-20T07:30:57;1.40;;;1.20;;
49235;SDS011;35067;48.134;8.378;2022-11-20T07:32:58;1.37;;;1.00;;
49235;SDS011;35067;48.134;8.378;2022-11-20T07:34:59;1.27;;;1.00;;
49235;SDS011;35067;48.134;8.378;2022-11-20T07:36:59;1.30;;;1.20;;
49235;SDS011;35067;48.134;8.378;2022-11-20T07:39:00;2.70;;;1.27;;
49235;SDS011;35067;48.134;8.378;2022-11-20T07:41:01;1.30;;;0.80;;
49235;SDS011;35067;48.134;8.378;2022-11-20T07:43:01;0.80;;;0.80;;
49235;SDS011;35067;48.134;8.378;2022-11-20T07:45:02;1.20;;;1.10;;
49235;SDS011;35067;48.134;8.378;2022-11-20T07:47:03;1.10;;;1.00;;
49235;SDS011;35067;48.134;8.378;2022-11-20T07:49:04;0.80;;;0.80;;
49235;SDS011;35067;48.134;8.378;2022-11-20T07:51:05;1.33;;;1.23;;
49235;SDS011;35067;48.134;8.378;2022-11-20T07:53:06;1.00;;;0.80;;
49235;SDS011;35067;48.134;8.378;2022-11-20T07:55:07;0.90;;;0.90;;
49235;SDS011;35067;48.134;8.378;2022-11-20T07:57:08;1.30;;;1.00;;
49235;SDS011;35067;48.134;8.378;2022-11-20T07:59:09;1.20;;;0.90;;
49235;SDS011;35067;48.134;8.378;2022-11-20T08:01:11;1.70;;;1.20;;
49235;SDS011;35067;48.134;8.378;2022-11-20T08:03:12;1.23;;;0.90;;
49235;SDS011;35067;48.134;8.378;2022-11-20T08:05:13;1.77;;;1.63;;
49235;SDS011;35067;48.134;8.378;2022-11-20T08:07:13;1.60;;;1.20;;
49235;SDS011;35067;48.134;8.378;2022-11-20T08:09:14;1.10;;;1.00;;
49235;SDS011;35067;48.134;8.378;2022-11-20T08:11:15;1.07;;;0.97;;
49235;SDS011;35067;48.134;8.378;2022-11-20T08:13:33;2.40;;;1.60;;
49235;SDS011;35067;48.134;8.378;2022-11-20T08:15:52;1.67;;;1.23;;
49235;SDS011;35067;48.134;8.378;2022-11-20T08:17:58;1.90;;;1.37;;
49235;SDS011;35067;48.134;8.378;2022-11-20T08:20:06;1.80;;;1.23;;
49235;SDS011;35067;48.134;8.378;2022-11-20T08:22:08;1.83;;;1.30;;
49235;SDS011;35067;48.134;8.378;2022-11-20T08:24:09;3.23;;;2.07;;
49235;SDS011;35067;48.134;8.378;2022-11-20T08:26:10;3.27;;;1.80;;
49235;SDS011;35067;48.134;8.378;2022-11-20T08:28:11;3.80;;;2.40;;
49235;SDS011;35067;48.134;8.378;2022-11-20T08:30:12;3.80;;;1.93;;
49235;SDS011;35067;48.134;8.378;2022-11-20T08:32:13;5.63;;;3.33;;
49235;SDS011;35067;48.134;8.378;2022-11-20T08:34:14;4.30;;;2.77;;
49235;SDS011;35067;48.134;8.378;2022-11-20T08:36:14;4.50;;;3.43;;
49235;SDS011;35067;48.134;8.378;2022-11-20T08:38:16;2.43;;;1.70;;
49235;SDS011;35067;48.134;8.378;2022-11-20T08:40:16;2.40;;;2.07;;
49235;SDS011;35067;48.134;8.378;2022-11-20T08:42:17;2.47;;;1.90;;
49235;SDS011;35067;48.134;8.378;2022-11-20T08:44:18;5.77;;;2.87;;
49235;SDS011;35067;48.134;8.378;2022-11-20T08:46:19;3.27;;;2.60;;
49235;SDS011;35067;48.134;8.378;2022-11-20T08:48:19;2.87;;;2.07;;
49235;SDS011;35067;48.134;8.378;2022-11-20T08:50:20;1.83;;;1.37;;
49235;SDS011;35067;48.134;8.378;2022-11-20T08:52:21;2.20;;;1.73;;
49235;SDS011;35067;48.134;8.378;2022-11-20T08:54:21;2.87;;;1.70;;
49235;SDS011;35067;48.134;8.378;2022-11-20T08:56:22;1.63;;;1.13;;
49235;SDS011;35067;48.134;8.378;2022-11-20T08:58:23;2.17;;;1.03;;
49235;SDS011;35067;48.134;8.378;2022-11-20T09:00:24;1.20;;;0.80;;
49235;SDS011;35067;48.134;8.378;2022-11-20T09:02:26;0.60;;;0.60;;
49235;SDS011;35067;48.134;8.378;2022-11-20T09:04:26;0.83;;;0.83;;
49235;SDS011;35067;48.134;8.378;2022-11-20T09:06:27;0.90;;;0.90;;
49235;SDS011;35067;48.134;8.378;2022-11-20T09:08:28;0.80;;;0.80;;
49235;SDS011;35067;48.134;8.378;2022-11-20T09:10:29;3.80;;;1.07;;
49235;SDS011;35067;48.134;8.378;2022-11-20T09:12:30;1.27;;;1.00;;
49235;SDS011;35067;48.134;8.378;2022-11-20T09:14:31;2.93;;;1.60;;
49235;SDS011;35067;48.134;8.378;2022-11-20T09:16:31;6.70;;;3.63;;
49235;SDS011;35067;48.134;8.378;2022-11-20T09:18:32;1.80;;;1.57;;
49235;SDS011;35067;48.134;8.378;2022-11-20T09:20:36;3.63;;;2.30;;
49235;SDS011;35067;48.134;8.378;2022-11-20T09:22:39;2.00;;;1.20;;
49235;SDS011;35067;48.134;8.378;2022-11-20T09:24:40;4.47;;;1.70;;
49235;SDS011;35067;48.134;8.378;2022-11-20T09:26:42;3.20;;;1.63;;
49235;SDS011;35067;48.134;8.378;2022-11-20T09:28:43;1.77;;;0.90;;
49235;SDS011;35067;48.134;8.378;2022-11-20T09:30:44;1.53;;;1.13;;
49235;SDS011;35067;48.134;8.378;2022-11-20T09:32:45;1.27;;;1.17;;
49235;SDS011;35067;48.134;8.378;2022-11-20T09:34:45;2.50;;;2.07;;
49235;SDS011;35067;48.134;8.378;2022-11-20T09:36:46;4.40;;;1.40;;
49235;SDS011;35067;48.134;8.378;2022-11-20T09:38:47;0.90;;;0.90;;
49235;SDS011;35067;48.134;8.378;2022-11-20T09:40:57;1.30;;;1.20;;
49235;SDS011;35067;48.134;8.378;2022-11-20T09:45:32;0.97;;;0.90;;
49235;SDS011;35067;48.134;8.378;2022-11-20T09:55:15;3.03;;;2.40;;
49235;SDS011;35067;48.134;8.378;2022-11-20T09:57:29;1.60;;;1.50;;
49235;SDS011;35067;48.134;8.378;2022-11-20T10:04:28;0.80;;;0.80;;
49235;SDS011;35067;48.134;8.378;2022-11-20T10:06:33;1.10;;;1.00;;
49235;SDS011;35067;48.134;8.378;2022-11-20T10:09:01;1.50;;;1.40;;
49235;SDS011;35067;48.134;8.378;2022-11-20T10:16:30;2.20;;;1.77;;
49235;SDS011;35067;48.134;8.378;2022-11-20T10:21:39;1.60;;;1.50;;
49235;SDS011;35067;48.134;8.378;2022-11-20T10:27:24;1.57;;;1.40;;
49235;SDS011;35067;48.134;8.378;2022-11-20T10:29:20;1.30;;;1.20;;
49235;SDS011;35067;48.134;8.378;2022-11-20T10:31:34;1.30;;;1.20;;
49235;SDS011;35067;48.134;8.378;2022-11-20T10:33:41;1.83;;;1.27;;
49235;SDS011;35067;48.134;8.378;2022-11-20T10:35:52;5.50;;;1.63;;
49235;SDS011;35067;48.134;8.378;2022-11-20T10:38:19;2.63;;;1.63;;
49235;SDS011;35067;48.134;8.378;2022-11-20T10:40:45;3.57;;;2.20;;
49235;SDS011;35067;48.134;8.378;2022-11-20T10:42:49;2.17;;;1.53;;
49235;SDS011;35067;48.134;8.378;2022-11-20T10:45:04;2.20;;;1.47;;
49235;SDS011;35067;48.134;8.378;2022-11-20T10:47:25;1.60;;;1.50;;
49235;SDS011;35067;48.134;8.378;2022-11-20T10:49:30;2.83;;;1.73;;
49235;SDS011;35067;48.134;8.378;2022-11-20T10:51:35;2.27;;;1.30;;
49235;SDS011;35067;48.134;8.378;2022-11-20T10:58:53;2.63;;;1.40;;
49235;SDS011;35067;48.134;8.378;2022-11-20T11:01:26;3.10;;;1.93;;
49235;SDS011;35067;48.134;8.378;2022-11-20T11:03:27;2.27;;;1.67;;
49235;SDS011;35067;48.134;8.378;2022-11-20T11:05:36;2.63;;;1.63;;
49235;SDS011;35067;48.134;8.378;2022-11-20T11:08:02;3.23;;;1.63;;
49235;SDS011;35067;48.134;8.378;2022-11-20T11:10:14;3.40;;;1.70;;
49235;SDS011;35067;48.134;8.378;2022-11-20T11:12:24;2.07;;;1.37;;
49235;SDS011;35067;48.134;8.378;2022-11-20T11:14:27;3.07;;;1.30;;
49235;SDS011;35067;48.134;8.378;2022-11-20T11:16:28;2.20;;;1.20;;
49235;SDS011;35067;48.134;8.378;2022-11-20T11:18:29;4.00;;;1.30;;
49235;SDS011;35067;48.134;8.378;2022-11-20T11:20:33;1.40;;;1.30;;
49235;SDS011;35067;48.134;8.378;2022-11-20T11:22:34;4.90;;;1.40;;
49235;SDS011;35067;48.134;8.378;2022-11-20T11:24:51;1.50;;;1.10;;
49235;SDS011;35067;48.134;8.378;2022-11-20T11:26:55;1.73;;;1.40;;
49235;SDS011;35067;48.134;8.378;2022-11-20T11:29:15;1.47;;;1.27;;
49235;SDS011;35067;48.134;8.378;2022-11-20T11:31:50;2.47;;;1.20;;
49235;SDS011;35067;48.134;8.378;2022-11-20T11:33:44;1.70;;;1.20;;
49235;SDS011;35067;48.134;8.378;2022-11-20T11:35:46;4.90;;;1.30;;
49235;SDS011;35067;48.134;8.378;2022-11-20T11:37:53;2.60;;;1.50;;
49235;SDS011;35067;48.134;8.378;2022-11-20T11:40:11;1.37;;;1.20;;
49235;SDS011;35067;48.134;8.378;2022-11-20T11:42:13;3.23;;;1.47;;
49235;SDS011;35067;48.134;8.378;2022-11-20T11:44:19;2.47;;;1.20;;
49235;SDS011;35067;48.134;8.378;2022-11-20T11:46:54;2.23;;;1.40;;
49235;SDS011;35067;48.134;8.378;2022-11-20T11:49:00;1.97;;;1.20;;
49235;SDS011;35067;48.134;8.378;2022-11-20T11:51:21;1.37;;;1.20;;
49235;SDS011;35067;48.134;8.378;2022-11-20T11:53:22;2.60;;;1.50;;
49235;SDS011;35067;48.134;8.378;2022-11-20T11:55:31;1.37;;;1.03;;
49235;SDS011;35067;48.134;8.378;2022-11-20T12:00:05;1.87;;;1.40;;
49235;SDS011;35067;48.134;8.378;2022-11-20T12:02:20;4.73;;;1.77;;
49235;SDS011;35067;48.134;8.378;2022-11-20T12:06:58;3.80;;;2.97;;
49235;SDS011;35067;48.134;8.378;2022-11-20T12:09:10;3.80;;;2.93;;
49235;SDS011;35067;48.134;8.378;2022-11-20T12:11:16;2.70;;;1.10;;
49235;SDS011;35067;48.134;8.378;2022-11-20T12:15:33;1.57;;;1.40;;
49235;SDS011;35067;48.134;8.378;2022-11-20T12:17:34;2.03;;;1.17;;
49235;SDS011;35067;48.134;8.378;2022-11-20T12:19:35;1.53;;;1.20;;
49235;SDS011;35067;48.134;8.378;2022-11-20T12:27:01;1.90;;;1.70;;
49235;SDS011;35067;48.134;8.378;2022-11-20T12:29:37;0.90;;;0.80;;
49235;SDS011;35067;48.134;8.378;2022-11-20T12:36:56;1.20;;;1.00;;
49235;SDS011;35067;48.134;8.378;2022-11-20T12:44:41;0.73;;;0.73;;
49235;SDS011;35067;48.134;8.378;2022-11-20T12:49:31;1.70;;;1.10;;
49235;SDS011;35067;48.134;8.378;2022-11-20T12:51:57;1.10;;;0.90;;
49235;SDS011;35067;48.134;8.378;2022-11-20T12:56:45;2.87;;;1.00;;
49235;SDS011;35067;48.134;8.378;2022-11-20T12:59:23;1.20;;;1.10;;
49235;SDS011;35067;48.134;8.378;2022-11-20T13:01:50;1.87;;;1.20;;
49235;SDS011;35067;48.134;8.378;2022-11-20T13:06:44;1.40;;;1.00;;
49235;SDS011;35067;48.134;8.378;2022-11-20T13:08:48;1.00;;;0.90;;
49235;SDS011;35067;48.134;8.378;2022-11-20T13:10:59;1.33;;;1.03;;
49235;SDS011;35067;48.134;8.378;2022-11-20T13:15:33;1.10;;;0.90;;
49235;SDS011;35067;48.134;8.378;2022-11-20T13:19:58;1.20;;;0.87;;
49235;SDS011;35067;48.134;8.378;2022-11-20T13:21:59;2.50;;;1.93;;
49235;SDS011;35067;48.134;8.378;2022-11-20T13:24:07;4.80;;;2.93;;
49235;SDS011;35067;48.134;8.378;2022-11-20T13:26:23;1.40;;;1.20;;
49235;SDS011;35067;48.134;8.378;2022-11-20T13:28:26;2.03;;;1.83;;
49235;SDS011;35067;48.134;8.378;2022-11-20T13:30:30;4.60;;;2.23;;
49235;SDS011;35067;48.134;8.378;2022-11-20T13:32:31;2.40;;;1.40;;
49235;SDS011;35067;48.134;8.378;2022-11-20T13:34:33;1.43;;;1.07;;
49235;SDS011;35067;48.134;8.378;2022-11-20T13:36:35;1.00;;;0.90;;
49235;SDS011;35067;48.134;8.378;2022-11-20T13:38:42;1.63;;;1.03;;
49235;SDS011;35067;48.134;8.378;2022-11-20T13:40:50;1.17;;;0.97;;
49235;SDS011;35067;48.134;8.378;2022-11-20T13:43:33;0.93;;;0.80;;